sensor_id;sensor_type;location;lat;lon;timestamp;pressure;altitude;pressure_sealevel;temperature;humidity
37202;BME280;37799;52.390;6.136;2023-11-21T00:02:10;101026.16;;;6.66;100.00
37202;BME280;37799;52.390;6.136;2023-11-21T00:04:35;101029.63;;;6.59;100.00
37202;BME280;37799;52.390;6.136;2023-11-21T00:07:00;101033.09;;;6.50;100.00
37202;BME280;37799;52.390;6.136;2023-11-21T00:09:26;101033.16;;;6.43;100.00
37202;BME280;37799;52.390;6.136;2023-11-21T00:11:51;101033.16;;;6.37;100.00
37202;BME280;37799;52.390;6.136;2023-11-21T00:14:16;101030.63;;;6.32;100.00
37202;BME280;37799;52.390;6.136;2023-11-21T00:16:42;101040.94;;;6.29;100.00
37202;BME280;37799;52.390;6.136;2023-11-21T00:19:07;101038.41;;;6.26;100.00
37202;BME280;37799;52.390;6.136;2023-11-21T00:21:32;101039.25;;;6.25;100.00
37202;BME280;37799;52.390;6.136;2023-11-21T00:23:57;101043.53;;;6.23;100.00
37202;BME280;37799;52.390;6.136;2023-11-21T00:26:23;101040.09;;;6.22;100.00
37202;BME280;37799;52.390;6.136;2023-11-21T00:28:49;101045.25;;;6.24;100.00
37202;BME280;37799;52.390;6.136;2023-11-21T00:31:15;101031.53;;;6.27;100.00
37202;BME280;37799;52.390;6.136;2023-11-21T00:33:40;101033.22;;;6.29;100.00
37202;BME280;37799;52.390;6.136;2023-11-21T00:36:06;101038.34;;;6.32;100.00
37202;BME280;37799;52.390;6.136;2023-11-21T00:38:37;101039.19;;;6.34;100.00
37202;BME280;37799;52.390;6.136;2023-11-21T00:41:05;101043.47;;;6.38;100.00
37202;BME280;37799;52.390;6.136;2023-11-21T00:43:30;101052.00;;;6.45;100.00
37202;BME280;37799;52.390;6.136;2023-11-21T00:45:56;101049.41;;;6.46;100.00
37202;BME280;37799;52.390;6.136;2023-11-21T00:48:21;101049.41;;;6.51;100.00
37202;BME280;37799;52.390;6.136;2023-11-21T00:50:46;101056.25;;;6.54;100.00
37202;BME280;37799;52.390;6.136;2023-11-21T00:53:12;101060.53;;;6.53;100.00
37202;BME280;37799;52.390;6.136;2023-11-21T00:55:37;101060.53;;;6.56;100.00
37202;BME280;37799;52.390;6.136;2023-11-21T00:58:05;101067.34;;;6.62;100.00
37202;BME280;37799;52.390;6.136;2023-11-21T01:00:32;101066.44;;;6.69;100.00
37202;BME280;37799;52.390;6.136;2023-11-21T01:02:57;101062.13;;;6.74;100.00
37202;BME280;37799;52.390;6.136;2023-11-21T01:05:23;101069.81;;;6.77;100.00
37202;BME280;37799;52.390;6.136;2023-11-21T01:07:48;101067.22;;;6.82;100.00
37202;BME280;37799;52.390;6.136;2023-11-21T01:10:13;101075.72;;;6.90;100.00
37202;BME280;37799;52.390;6.136;2023-11-21T01:12:39;101073.13;;;6.94;100.00
37202;BME280;37799;52.390;6.136;2023-11-21T01:15:05;101081.69;;;6.96;100.00
37202;BME280;37799;52.390;6.136;2023-11-21T01:17:34;101087.66;;;7.06;100.00
37202;BME280;37799;52.390;6.136;2023-11-21T01:20:00;101084.19;;;7.07;100.00
37202;BME280;37799;52.390;6.136;2023-11-21T01:22:26;101090.13;;;7.15;100.00
37202;BME280;37799;52.390;6.136;2023-11-21T01:24:54;101092.72;;;7.14;100.00
37202;BME280;37799;52.390;6.136;2023-11-21T01:27:19;101101.25;;;7.20;100.00
37202;BME280;37799;52.390;6.136;2023-11-21T01:29:45;101097.81;;;7.21;100.00
37202;BME280;37799;52.390;6.136;2023-11-21T01:32:10;101098.63;;;7.26;100.00
37202;BME280;37799;52.390;6.136;2023-11-21T01:34:36;101093.50;;;7.25;100.00
37202;BME280;37799;52.390;6.136;2023-11-21T01:37:01;101096.94;;;7.24;100.00
37202;BME280;37799;52.390;6.136;2023-11-21T01:39:29;101097.81;;;7.23;100.00
37202;BME280;37799;52.390;6.136;2023-11-21T01:41:55;101097.78;;;7.24;100.00
37202;BME280;37799;52.390;6.136;2023-11-21T01:44:20;101097.78;;;7.24;100.00
37202;BME280;37799;52.390;6.136;2023-11-21T01:46:45;101104.66;;;7.24;100.00
37202;BME280;37799;52.390;6.136;2023-11-21T01:49:14;101100.38;;;7.23;100.00
37202;BME280;37799;52.390;6.136;2023-11-21T01:51:42;101103.78;;;7.25;100.00
37202;BME280;37799;52.390;6.136;2023-11-21T01:54:08;101104.69;;;7.22;100.00
37202;BME280;37799;52.390;6.136;2023-11-21T01:56:34;101099.50;;;7.24;100.00
37202;BME280;37799;52.390;6.136;2023-11-21T01:59:00;101107.22;;;7.27;100.00
37202;BME280;37799;52.390;6.136;2023-11-21T02:01:25;101101.19;;;7.29;100.00
37202;BME280;37799;52.390;6.136;2023-11-21T02:03:51;101097.69;;;7.36;100.00
37202;BME280;37799;52.390;6.136;2023-11-21T02:06:17;101092.56;;;7.33;100.00
37202;BME280;37799;52.390;6.136;2023-11-21T02:08:43;101099.34;;;7.42;100.00
37202;BME280;37799;52.390;6.136;2023-11-21T02:11:09;101097.59;;;7.47;100.00
37202;BME280;37799;52.390;6.136;2023-11-21T02:13:38;101111.31;;;7.51;100.00
37202;BME280;37799;52.390;6.136;2023-11-21T02:16:03;101117.28;;;7.54;100.00
37202;BME280;37799;52.390;6.136;2023-11-21T02:18:30;101120.63;;;7.64;100.00
37202;BME280;37799;52.390;6.136;2023-11-21T02:20:56;101122.31;;;7.66;100.00
37202;BME280;37799;52.390;6.136;2023-11-21T02:23:21;101123.97;;;7.74;100.00
37202;BME280;37799;52.390;6.136;2023-11-21T02:25:48;101130.84;;;7.75;100.00
37202;BME280;37799;52.390;6.136;2023-11-21T02:28:13;101132.50;;;7.79;100.00
37202;BME280;37799;52.390;6.136;2023-11-21T02:30:41;101126.50;;;7.81;100.00
37202;BME280;37799;52.390;6.136;2023-11-21T02:33:07;101129.94;;;7.82;100.00
37202;BME280;37799;52.390;6.136;2023-11-21T02:35:33;101131.59;;;7.86;100.00
37202;BME280;37799;52.390;6.136;2023-11-21T02:37:58;101134.13;;;7.89;100.00
37202;BME280;37799;52.390;6.136;2023-11-21T02:40:23;101130.69;;;7.90;100.00
37202;BME280;37799;52.390;6.136;2023-11-21T02:42:50;101129.78;;;7.92;100.00
37202;BME280;37799;52.390;6.136;2023-11-21T02:45:20;101138.25;;;8.05;100.00
37202;BME280;37799;52.390;6.136;2023-11-21T02:47:49;101137.47;;;8.00;100.00
37202;BME280;37799;52.390;6.136;2023-11-21T02:50:14;101137.50;;;7.97;100.00
37202;BME280;37799;52.390;6.136;2023-11-21T02:52:40;101136.66;;;7.96;100.00
37202;BME280;37799;52.390;6.136;2023-11-21T02:55:05;101129.78;;;7.95;100.00
37202;BME280;37799;52.390;6.136;2023-11-21T02:57:32;101132.41;;;7.91;100.00
37202;BME280;37799;52.390;6.136;2023-11-21T02:59:58;101128.16;;;7.85;100.00
37202;BME280;37799;52.390;6.136;2023-11-21T03:02:25;101129.03;;;7.84;100.00
37202;BME280;37799;52.390;6.136;2023-11-21T03:04:50;101131.53;;;7.90;100.00
37202;BME280;37799;52.390;6.136;2023-11-21T03:07:16;101131.50;;;7.95;100.00
37202;BME280;37799;52.390;6.136;2023-11-21T03:09:41;101129.78;;;7.94;100.00
37202;BME280;37799;52.390;6.136;2023-11-21T03:12:07;101130.69;;;7.90;100.00
37202;BME280;37799;52.390;6.136;2023-11-21T03:14:34;101134.09;;;7.92;100.00
37202;BME280;37799;52.390;6.136;2023-11-21T03:16:59;101131.56;;;7.87;100.00
37202;BME280;37799;52.390;6.136;2023-11-21T03:19:24;101135.88;;;7.87;100.00
37202;BME280;37799;52.390;6.136;2023-11-21T03:21:49;101130.66;;;7.96;100.00
37202;BME280;37799;52.390;6.136;2023-11-21T03:24:15;101133.22;;;7.93;100.00
37202;BME280;37799;52.390;6.136;2023-11-21T03:26:45;101150.41;;;7.97;100.00
37202;BME280;37799;52.390;6.136;2023-11-21T03:29:12;101159.06;;;7.90;100.00
37202;BME280;37799;52.390;6.136;2023-11-21T03:31:37;101150.41;;;7.94;100.00
37202;BME280;37799;52.390;6.136;2023-11-21T03:34:02;101162.47;;;7.95;100.00
37202;BME280;37799;52.390;6.136;2023-11-21T03:36:28;101159.84;;;7.96;100.00
37202;BME280;37799;52.390;6.136;2023-11-21T03:38:53;101155.56;;;7.97;100.00
37202;BME280;37799;52.390;6.136;2023-11-21T03:41:19;101152.13;;;7.96;100.00
37202;BME280;37799;52.390;6.136;2023-11-21T03:43:45;101153.06;;;7.88;100.00
37202;BME280;37799;52.390;6.136;2023-11-21T03:46:10;101152.22;;;7.86;100.00
37202;BME280;37799;52.390;6.136;2023-11-21T03:48:35;101152.13;;;7.96;100.00
37202;BME280;37799;52.390;6.136;2023-11-21T03:51:00;101156.44;;;7.93;100.00
37202;BME280;37799;52.390;6.136;2023-11-21T03:53:26;101162.41;;;7.98;100.00
37202;BME280;37799;52.390;6.136;2023-11-21T03:55:51;101164.06;;;8.04;100.00
37202;BME280;37799;52.390;6.136;2023-11-21T03:58:16;101161.47;;;8.05;100.00
37202;BME280;37799;52.390;6.136;2023-11-21T04:00:42;101161.50;;;8.02;100.00
37202;BME280;37799;52.390;6.136;2023-11-21T04:03:07;101164.16;;;7.96;100.00
37202;BME280;37799;52.390;6.136;2023-11-21T04:05:32;101168.38;;;8.03;100.00
37202;BME280;37799;52.390;6.136;2023-11-21T04:07:58;101163.22;;;8.03;100.00
37202;BME280;37799;52.390;6.136;2023-11-21T04:10:23;101168.34;;;8.05;100.00
37202;BME280;37799;52.390;6.136;2023-11-21T04:12:48;101171.75;;;8.07;100.00
37202;BME280;37799;52.390;6.136;2023-11-21T04:15:14;101176.13;;;8.02;100.00
37202;BME280;37799;52.390;6.136;2023-11-21T04:17:40;101182.97;;;8.04;100.00
37202;BME280;37799;52.390;6.136;2023-11-21T04:20:06;101190.66;;;8.07;100.00
37202;BME280;37799;52.390;6.136;2023-11-21T04:22:36;101200.97;;;8.10;100.00
37202;BME280;37799;52.390;6.136;2023-11-21T04:25:02;101194.09;;;8.12;100.00
37202;BME280;37799;52.390;6.136;2023-11-21T04:27:27;101199.25;;;8.12;100.00
37202;BME280;37799;52.390;6.136;2023-11-21T04:29:52;101199.22;;;8.14;100.00
37202;BME280;37799;52.390;6.136;2023-11-21T04:32:18;101204.34;;;8.15;100.00
37202;BME280;37799;52.390;6.136;2023-11-21T04:34:43;101204.41;;;8.12;100.00
37202;BME280;37799;52.390;6.136;2023-11-21T04:37:08;101203.59;;;8.09;100.00
37202;BME280;37799;52.390;6.136;2023-11-21T04:39:35;101212.94;;;8.17;100.00
37202;BME280;37799;52.390;6.136;2023-11-21T04:42:01;101216.41;;;8.13;100.00
37202;BME280;37799;52.390;6.136;2023-11-21T04:44:26;101212.03;;;8.23;100.00
37202;BME280;37799;52.390;6.136;2023-11-21T04:46:51;101216.34;;;8.22;100.00
37202;BME280;37799;52.390;6.136;2023-11-21T04:49:16;101213.72;;;8.25;100.00
37202;BME280;37799;52.390;6.136;2023-11-21T04:51:42;101212.88;;;8.25;100.00
37202;BME280;37799;52.390;6.136;2023-11-21T04:54:07;101226.63;;;8.25;100.00
37202;BME280;37799;52.390;6.136;2023-11-21T04:56:32;101231.81;;;8.22;100.00
37202;BME280;37799;52.390;6.136;2023-11-21T04:58:58;101234.38;;;8.25;100.00
37202;BME280;37799;52.390;6.136;2023-11-21T05:01:23;101225.81;;;8.19;100.00
37202;BME280;37799;52.390;6.136;2023-11-21T05:03:48;101234.41;;;8.18;100.00
37202;BME280;37799;52.390;6.136;2023-11-21T05:06:14;101240.44;;;8.21;100.00
37202;BME280;37799;52.390;6.136;2023-11-21T05:08:39;101238.72;;;8.20;100.00
37202;BME280;37799;52.390;6.136;2023-11-21T05:11:04;101240.41;;;8.24;100.00
37202;BME280;37799;52.390;6.136;2023-11-21T05:13:33;101254.09;;;8.29;100.00
37202;BME280;37799;52.390;6.136;2023-11-21T05:15:59;101254.19;;;8.22;100.00
37202;BME280;37799;52.390;6.136;2023-11-21T05:18:24;101248.94;;;8.28;100.00
37202;BME280;37799;52.390;6.136;2023-11-21T05:20:52;101251.47;;;8.33;100.00
37202;BME280;37799;52.390;6.136;2023-11-21T05:23:18;101258.41;;;8.27;100.00
37202;BME280;37799;52.390;6.136;2023-11-21T05:25:44;101252.38;;;8.30;100.00
37202;BME280;37799;52.390;6.136;2023-11-21T05:28:09;101264.41;;;8.29;100.00
37202;BME280;37799;52.390;6.136;2023-11-21T05:30:34;101267.84;;;8.36;100.00
37202;BME280;37799;52.390;6.136;2023-11-21T05:32:59;101262.63;;;8.39;100.00
37202;BME280;37799;52.390;6.136;2023-11-21T05:35:25;101266.06;;;8.40;100.00
37202;BME280;37799;52.390;6.136;2023-11-21T05:37:51;101278.09;;;8.41;100.00
37202;BME280;37799;52.390;6.136;2023-11-21T05:40:16;101272.13;;;8.37;100.00
37202;BME280;37799;52.390;6.136;2023-11-21T05:42:42;101269.59;;;8.34;100.00
37202;BME280;37799;52.390;6.136;2023-11-21T05:45:08;101273.00;;;8.32;100.00
37202;BME280;37799;52.390;6.136;2023-11-21T05:47:41;101274.69;;;8.39;100.00
37202;BME280;37799;52.390;6.136;2023-11-21T05:50:08;101277.22;;;8.43;100.00
37202;BME280;37799;52.390;6.136;2023-11-21T05:52:38;101293.59;;;8.41;100.00
37202;BME280;37799;52.390;6.136;2023-11-21T05:55:05;101296.97;;;8.44;100.00
37202;BME280;37799;52.390;6.136;2023-11-21T05:57:33;101301.31;;;8.42;100.00
37202;BME280;37799;52.390;6.136;2023-11-21T05:59:59;101311.69;;;8.38;100.00
37202;BME280;37799;52.390;6.136;2023-11-21T06:02:24;101306.53;;;8.38;100.00
37202;BME280;37799;52.390;6.136;2023-11-21T06:04:51;101310.81;;;8.39;100.00
37202;BME280;37799;52.390;6.136;2023-11-21T06:07:16;101323.72;;;8.39;100.00
37202;BME280;37799;52.390;6.136;2023-11-21T06:09:42;101318.50;;;8.42;100.00
37202;BME280;37799;52.390;6.136;2023-11-21T06:12:07;101321.03;;;8.51;100.00
37202;BME280;37799;52.390;6.136;2023-11-21T06:14:32;101328.75;;;8.51;100.00
37202;BME280;37799;52.390;6.136;2023-11-21T06:17:00;101329.59;;;8.53;100.00
37202;BME280;37799;52.390;6.136;2023-11-21T06:19:25;101334.72;;;8.56;100.00
37202;BME280;37799;52.390;6.136;2023-11-21T06:21:51;101339.91;;;8.53;100.00
37202;BME280;37799;52.390;6.136;2023-11-21T06:24:16;101350.25;;;8.53;100.00
37202;BME280;37799;52.390;6.136;2023-11-21T06:26:42;101351.19;;;8.47;100.00
37202;BME280;37799;52.390;6.136;2023-11-21T06:29:07;101355.44;;;8.50;100.00
37202;BME280;37799;52.390;6.136;2023-11-21T06:31:32;101360.56;;;8.53;100.00
37202;BME280;37799;52.390;6.136;2023-11-21T06:33:58;101361.38;;;8.58;100.00
37202;BME280;37799;52.390;6.136;2023-11-21T06:36:25;101363.94;;;8.61;100.00
37202;BME280;37799;52.390;6.136;2023-11-21T06:38:51;101360.50;;;8.59;100.00
37202;BME280;37799;52.390;6.136;2023-11-21T06:41:16;101370.91;;;8.53;100.00
37202;BME280;37799;52.390;6.136;2023-11-21T06:43:42;101362.25;;;8.60;100.00
37202;BME280;37799;52.390;6.136;2023-11-21T06:46:11;101376.88;;;8.60;100.00
37202;BME280;37799;52.390;6.136;2023-11-21T06:48:36;101379.44;;;8.61;100.00
37202;BME280;37799;52.390;6.136;2023-11-21T06:51:03;101374.28;;;8.61;100.00
37202;BME280;37799;52.390;6.136;2023-11-21T06:53:29;101375.06;;;8.66;100.00
37202;BME280;37799;52.390;6.136;2023-11-21T06:55:54;101381.09;;;8.67;100.00
37202;BME280;37799;52.390;6.136;2023-11-21T06:58:20;101386.22;;;8.71;100.00
37202;BME280;37799;52.390;6.136;2023-11-21T07:00:45;101390.50;;;8.72;100.00
37202;BME280;37799;52.390;6.136;2023-11-21T07:03:13;101403.41;;;8.75;100.00
37202;BME280;37799;52.390;6.136;2023-11-21T07:05:39;101414.59;;;8.74;100.00
37202;BME280;37799;52.390;6.136;2023-11-21T07:08:04;101419.72;;;8.79;100.00
37202;BME280;37799;52.390;6.136;2023-11-21T07:10:29;101420.59;;;8.76;100.00
37202;BME280;37799;52.390;6.136;2023-11-21T07:12:55;101420.63;;;8.73;100.00
37202;BME280;37799;52.390;6.136;2023-11-21T07:15:22;101424.06;;;8.71;100.00
37202;BME280;37799;52.390;6.136;2023-11-21T07:17:47;101424.97;;;8.67;100.00
37202;BME280;37799;52.390;6.136;2023-11-21T07:20:13;101435.28;;;8.68;100.00
37202;BME280;37799;52.390;6.136;2023-11-21T07:22:39;101441.28;;;8.70;100.00
37202;BME280;37799;52.390;6.136;2023-11-21T07:25:04;101445.56;;;8.76;100.00
37202;BME280;37799;52.390;6.136;2023-11-21T07:27:30;101459.34;;;8.72;100.00
37202;BME280;37799;52.390;6.136;2023-11-21T07:29:55;101467.09;;;8.72;100.00
37202;BME280;37799;52.390;6.136;2023-11-21T07:32:20;101470.53;;;8.77;100.00
37202;BME280;37799;52.390;6.136;2023-11-21T07:34:46;101470.47;;;8.81;100.00
37202;BME280;37799;52.390;6.136;2023-11-21T07:37:11;101477.41;;;8.76;100.00
37202;BME280;37799;52.390;6.136;2023-11-21T07:39:36;101474.00;;;8.71;100.00
37202;BME280;37799;52.390;6.136;2023-11-21T07:42:02;101477.47;;;8.69;100.00
37202;BME280;37799;52.390;6.136;2023-11-21T07:44:28;101486.91;;;8.70;100.00
37202;BME280;37799;52.390;6.136;2023-11-21T07:46:53;101501.53;;;8.71;100.00
37202;BME280;37799;52.390;6.136;2023-11-21T07:49:22;101501.50;;;8.77;100.00
37202;BME280;37799;52.390;6.136;2023-11-21T07:51:48;101510.09;;;8.77;100.00
37202;BME280;37799;52.390;6.136;2023-11-21T07:54:13;101513.50;;;8.82;100.00
37202;BME280;37799;52.390;6.136;2023-11-21T07:56:38;101517.78;;;8.85;100.00
37202;BME280;37799;52.390;6.136;2023-11-21T07:59:04;101510.03;;;8.85;100.00
37202;BME280;37799;52.390;6.136;2023-11-21T08:01:29;101515.16;;;8.93;100.00
37202;BME280;37799;52.390;6.136;2023-11-21T08:03:54;101519.47;;;8.91;100.00
37202;BME280;37799;52.390;6.136;2023-11-21T08:06:23;101521.16;;;8.93;100.00
37202;BME280;37799;52.390;6.136;2023-11-21T08:08:49;101527.16;;;8.95;100.00
37202;BME280;37799;52.390;6.136;2023-11-21T08:11:14;101534.94;;;8.94;100.00
37202;BME280;37799;52.390;6.136;2023-11-21T08:13:39;101534.94;;;8.92;100.00
37202;BME280;37799;52.390;6.136;2023-11-21T08:16:05;101543.50;;;9.00;100.00
37202;BME280;37799;52.390;6.136;2023-11-21T08:18:32;101546.94;;;9.02;100.00
37202;BME280;37799;52.390;6.136;2023-11-21T08:20:57;101549.47;;;9.07;100.00
37202;BME280;37799;52.390;6.136;2023-11-21T08:23:23;101552.84;;;9.15;100.00
37202;BME280;37799;52.390;6.136;2023-11-21T08:25:52;101547.63;;;9.21;100.00
37202;BME280;37799;52.390;6.136;2023-11-21T08:28:18;101553.66;;;9.20;100.00
37202;BME280;37799;52.390;6.136;2023-11-21T08:30:44;101558.75;;;9.29;100.00
37202;BME280;37799;52.390;6.136;2023-11-21T08:33:09;101569.13;;;9.26;100.00
37202;BME280;37799;52.390;6.136;2023-11-21T08:35:36;101576.03;;;9.23;100.00
37202;BME280;37799;52.390;6.136;2023-11-21T08:38:02;101569.09;;;9.28;100.00
37202;BME280;37799;52.390;6.136;2023-11-21T08:40:28;101581.13;;;9.32;100.00
37202;BME280;37799;52.390;6.136;2023-11-21T08:42:53;101584.53;;;9.35;100.00
37202;BME280;37799;52.390;6.136;2023-11-21T08:45:20;101587.09;;;9.38;100.00
37202;BME280;37799;52.390;6.136;2023-11-21T08:47:47;101586.13;;;9.50;100.00
37202;BME280;37799;52.390;6.136;2023-11-21T08:50:12;101602.41;;;9.60;100.00
37202;BME280;37799;52.390;6.136;2023-11-21T08:52:38;101599.69;;;9.72;100.00
37202;BME280;37799;52.390;6.136;2023-11-21T08:55:04;101604.94;;;9.67;100.00
37202;BME280;37799;52.390;6.136;2023-11-21T08:57:35;101603.91;;;9.82;100.00
37202;BME280;37799;52.390;6.136;2023-11-21T09:00:03;101611.59;;;9.88;100.00
37202;BME280;37799;52.390;6.136;2023-11-21T09:02:31;101614.91;;;10.01;100.00
37202;BME280;37799;52.390;6.136;2023-11-21T09:04:56;101619.97;;;10.10;100.00
37202;BME280;37799;52.390;6.136;2023-11-21T09:07:22;101617.31;;;10.18;100.00
37202;BME280;37799;52.390;6.136;2023-11-21T09:09:47;101624.19;;;10.22;100.00
37202;BME280;37799;52.390;6.136;2023-11-21T09:12:14;101618.97;;;10.25;100.00
37202;BME280;37799;52.390;6.136;2023-11-21T09:14:39;101629.13;;;10.40;100.00
37202;BME280;37799;52.390;6.136;2023-11-21T09:17:05;101630.88;;;10.38;100.00
37202;BME280;37799;52.390;6.136;2023-11-21T09:19:36;101637.13;;;10.23;100.00
37202;BME280;37799;52.390;6.136;2023-11-21T09:22:02;101644.88;;;10.20;100.00
37202;BME280;37799;52.390;6.136;2023-11-21T09:24:27;101650.72;;;10.39;100.00
37202;BME280;37799;52.390;6.136;2023-11-21T09:26:52;101653.47;;;10.25;100.00
37202;BME280;37799;52.390;6.136;2023-11-21T09:29:18;101666.63;;;10.05;100.00
37202;BME280;37799;52.390;6.136;2023-11-21T09:31:43;101670.88;;;10.10;100.00
37202;BME280;37799;52.390;6.136;2023-11-21T09:34:09;101676.00;;;10.16;100.00
37202;BME280;37799;52.390;6.136;2023-11-21T09:36:35;101687.22;;;10.16;100.00
37202;BME280;37799;52.390;6.136;2023-11-21T09:39:04;101696.72;;;10.13;100.00
37202;BME280;37799;52.390;6.136;2023-11-21T09:41:52;101695.97;;;10.00;100.00
37202;BME280;37799;52.390;6.136;2023-11-21T09:44:34;101696.84;;;9.99;100.00
37202;BME280;37799;52.390;6.136;2023-11-21T09:47:01;101695.19;;;9.93;100.00
37202;BME280;37799;52.390;6.136;2023-11-21T09:49:27;101704.59;;;10.00;100.00
37202;BME280;37799;52.390;6.136;2023-11-21T09:51:55;101698.59;;;9.98;100.00
37202;BME280;37799;52.390;6.136;2023-11-21T09:54:23;101705.63;;;9.84;100.00
37202;BME280;37799;52.390;6.136;2023-11-21T09:56:49;101716.03;;;9.78;100.00
37202;BME280;37799;52.390;6.136;2023-11-21T09:59:15;101713.38;;;9.86;100.00
37202;BME280;37799;52.390;6.136;2023-11-21T10:01:41;101712.50;;;9.85;100.00
37202;BME280;37799;52.390;6.136;2023-11-21T10:04:07;101715.91;;;9.93;100.00
37202;BME280;37799;52.390;6.136;2023-11-21T10:06:38;101717.56;;;9.97;100.00
37202;BME280;37799;52.390;6.136;2023-11-21T10:09:04;101716.72;;;9.97;100.00
37202;BME280;37799;52.390;6.136;2023-11-21T10:11:37;101715.94;;;9.87;100.00
37202;BME280;37799;52.390;6.136;2023-11-21T10:14:05;101720.31;;;9.82;100.00
37202;BME280;37799;52.390;6.136;2023-11-21T10:16:30;101728.84;;;9.89;100.00
37202;BME280;37799;52.390;6.136;2023-11-21T10:18:58;101733.28;;;9.79;100.00
37202;BME280;37799;52.390;6.136;2023-11-21T10:21:23;101741.81;;;9.86;100.00
37202;BME280;37799;52.390;6.136;2023-11-21T10:23:50;101737.50;;;9.91;100.00
37202;BME280;37799;52.390;6.136;2023-11-21T10:26:18;101745.31;;;9.83;100.00
37202;BME280;37799;52.390;6.136;2023-11-21T10:28:57;101744.44;;;9.83;100.00
37202;BME280;37799;52.390;6.136;2023-11-21T10:31:23;101747.84;;;9.86;100.00
37202;BME280;37799;52.390;6.136;2023-11-21T10:33:49;101758.31;;;9.74;100.00
37202;BME280;37799;52.390;6.136;2023-11-21T10:36:25;101758.28;;;9.79;100.00
37202;BME280;37799;52.390;6.136;2023-11-21T10:38:50;101772.03;;;9.82;100.00
37202;BME280;37799;52.390;6.136;2023-11-21T10:41:18;101773.72;;;9.86;100.00
37202;BME280;37799;52.390;6.136;2023-11-21T10:43:44;101770.19;;;9.96;100.00
37202;BME280;37799;52.390;6.136;2023-11-21T10:46:09;101769.41;;;9.91;100.00
37202;BME280;37799;52.390;6.136;2023-11-21T10:48:35;101770.25;;;9.92;100.00
37202;BME280;37799;52.390;6.136;2023-11-21T10:51:06;101773.66;;;9.97;100.00
37202;BME280;37799;52.390;6.136;2023-11-21T10:53:32;101775.38;;;9.96;100.00
37202;BME280;37799;52.390;6.136;2023-11-21T10:56:05;101784.72;;;10.11;100.00
37202;BME280;37799;52.390;6.136;2023-11-21T10:58:32;101785.69;;;9.99;100.00
37202;BME280;37799;52.390;6.136;2023-11-21T11:00:58;101787.47;;;9.94;100.00
37202;BME280;37799;52.390;6.136;2023-11-21T11:03:25;101791.75;;;9.98;100.00
37202;BME280;37799;52.390;6.136;2023-11-21T11:05:52;101784.84;;;9.99;100.00
37202;BME280;37799;52.390;6.136;2023-11-21T11:08:18;101796.94;;;9.95;100.00
37202;BME280;37799;52.390;6.136;2023-11-21T11:10:45;101796.97;;;9.94;100.00
37202;BME280;37799;52.390;6.136;2023-11-21T11:13:13;101796.94;;;9.95;100.00
37202;BME280;37799;52.390;6.136;2023-11-21T11:15:40;101795.22;;;9.96;100.00
37202;BME280;37799;52.390;6.136;2023-11-21T11:18:05;101810.69;;;10.05;100.00
37202;BME280;37799;52.390;6.136;2023-11-21T11:20:36;101809.81;;;10.06;100.00
37202;BME280;37799;52.390;6.136;2023-11-21T11:23:17;101813.16;;;10.17;100.00
37202;BME280;37799;52.390;6.136;2023-11-21T11:26:05;101810.63;;;10.10;100.00
37202;BME280;37799;52.390;6.136;2023-11-21T11:28:46;101813.06;;;10.32;100.00
37202;BME280;37799;52.390;6.136;2023-11-21T11:34:26;101810.63;;;10.10;100.00
37202;BME280;37799;52.390;6.136;2023-11-21T11:37:00;101814.03;;;10.18;100.00
37202;BME280;37799;52.390;6.136;2023-11-21T11:42:06;101830.41;;;10.21;100.00
37202;BME280;37799;52.390;6.136;2023-11-21T11:52:35;101834.97;;;9.84;100.00
37202;BME280;37799;52.390;6.136;2023-11-21T11:55:04;101837.56;;;9.84;100.00
37202;BME280;37799;52.390;6.136;2023-11-21T11:57:30;101842.69;;;9.89;100.00
37202;BME280;37799;52.390;6.136;2023-11-21T12:00:13;101854.88;;;9.71;100.00
37202;BME280;37799;52.390;6.136;2023-11-21T12:02:45;101860.19;;;9.52;100.00
37202;BME280;37799;52.390;6.136;2023-11-21T12:05:12;101867.06;;;9.54;100.00
37202;BME280;37799;52.390;6.136;2023-11-21T12:07:47;101870.50;;;9.49;100.00
37202;BME280;37799;52.390;6.136;2023-11-21T12:10:18;101873.09;;;9.49;100.00
37202;BME280;37799;52.390;6.136;2023-11-21T12:12:46;101875.75;;;9.41;100.00
37202;BME280;37799;52.390;6.136;2023-11-21T12:15:11;101880.88;;;9.45;100.00
37202;BME280;37799;52.390;6.136;2023-11-21T12:17:38;101886.97;;;9.32;100.00
37202;BME280;37799;52.390;6.136;2023-11-21T12:20:04;101889.47;;;9.52;100.00
37202;BME280;37799;52.390;6.136;2023-11-21T12:22:31;101893.81;;;9.45;100.00
37202;BME280;37799;52.390;6.136;2023-11-21T12:24:56;101895.56;;;9.34;100.00
37202;BME280;37799;52.390;6.136;2023-11-21T12:27:22;101896.50;;;9.26;100.00
37202;BME280;37799;52.390;6.136;2023-11-21T12:29:47;101893.03;;;9.28;100.00
37202;BME280;37799;52.390;6.136;2023-11-21T12:32:12;101888.72;;;9.24;100.00
37202;BME280;37799;52.390;6.136;2023-11-21T12:34:40;101902.47;;;9.35;100.00
37202;BME280;37799;52.390;6.136;2023-11-21T12:37:05;101904.22;;;9.32;100.00
37202;BME280;37799;52.390;6.136;2023-11-21T12:39:31;101905.09;;;9.22;100.00
37202;BME280;37799;52.390;6.136;2023-11-21T12:41:57;101912.03;;;9.13;100.00
37202;BME280;37799;52.390;6.136;2023-11-21T12:44:22;101903.38;;;9.27;100.00
37202;BME280;37799;52.390;6.136;2023-11-21T12:46:49;101915.44;;;9.25;100.00
37202;BME280;37799;52.390;6.136;2023-11-21T12:49:15;101914.56;;;9.27;100.00
37202;BME280;37799;52.390;6.136;2023-11-21T12:51:45;101906.81;;;9.26;100.00
37202;BME280;37799;52.390;6.136;2023-11-21T12:54:12;101907.63;;;9.34;100.00
37202;BME280;37799;52.390;6.136;2023-11-21T12:56:38;101912.81;;;9.35;100.00
37202;BME280;37799;52.390;6.136;2023-11-21T12:59:04;101911.97;;;9.24;100.00
37202;BME280;37799;52.390;6.136;2023-11-21T13:01:30;101914.56;;;9.27;100.00